sensor_id;sensor_type;location;lat;lon;timestamp;P1;durP1;ratioP1;P2;durP2;ratioP2
58015;SDS011;43809;52.110;20.964;2024-01-15T00:01:36;13.07;;;10.40;;
58015;SDS011;43809;52.110;20.964;2024-01-15T00:03:37;12.80;;;10.55;;
58015;SDS011;43809;52.110;20.964;2024-01-15T00:05:38;12.55;;;10.38;;
58015;SDS011;43809;52.110;20.964;2024-01-15T00:07:38;12.82;;;10.43;;
58015;SDS011;43809;52.110;20.964;2024-01-15T00:09:39;15.25;;;11.43;;
58015;SDS011;43809;52.110;20.964;2024-01-15T00:11:40;13.98;;;10.93;;
58015;SDS011;43809;52.110;20.964;2024-01-15T00:13:41;14.27;;;11.65;;
58015;SDS011;43809;52.110;20.964;2024-01-15T00:15:42;13.70;;;11.15;;
58015;SDS011;43809;52.110;20.964;2024-01-15T00:17:42;15.27;;;11.73;;
58015;SDS011;43809;52.110;20.964;2024-01-15T00:19:43;14.75;;;11.52;;
58015;SDS011;43809;52.110;20.964;2024-01-15T00:24:06;12.90;;;11.53;;
58015;SDS011;43809;52.110;20.964;2024-01-15T00:26:06;14.48;;;12.18;;
58015;SDS011;43809;52.110;20.964;2024-01-15T00:28:07;16.25;;;12.02;;
58015;SDS011;43809;52.110;20.964;2024-01-15T00:30:08;15.82;;;11.65;;
58015;SDS011;43809;52.110;20.964;2024-01-15T00:32:08;13.82;;;11.45;;
58015;SDS011;43809;52.110;20.964;2024-01-15T00:50:17;13.77;;;11.60;;
58015;SDS011;43809;52.110;20.964;2024-01-15T00:52:18;13.77;;;11.82;;
58015;SDS011;43809;52.110;20.964;2024-01-15T00:54:19;13.10;;;11.70;;
58015;SDS011;43809;52.110;20.964;2024-01-15T00:56:19;15.00;;;12.38;;
58015;SDS011;43809;52.110;20.964;2024-01-15T00:58:20;14.18;;;12.07;;
58015;SDS011;43809;52.110;20.964;2024-01-15T01:00:21;14.20;;;12.05;;
58015;SDS011;43809;52.110;20.964;2024-01-15T01:02:21;14.77;;;11.82;;
58015;SDS011;43809;52.110;20.964;2024-01-15T01:10:00;14.38;;;12.30;;
58015;SDS011;43809;52.110;20.964;2024-01-15T01:12:01;16.08;;;12.98;;
58015;SDS011;43809;52.110;20.964;2024-01-15T01:14:01;17.05;;;13.77;;
58015;SDS011;43809;52.110;20.964;2024-01-15T01:16:02;17.10;;;13.57;;
58015;SDS011;43809;52.110;20.964;2024-01-15T01:18:04;17.40;;;13.47;;
58015;SDS011;43809;52.110;20.964;2024-01-15T01:20:05;18.50;;;14.82;;
58015;SDS011;43809;52.110;20.964;2024-01-15T01:22:08;18.70;;;14.82;;
58015;SDS011;43809;52.110;20.964;2024-01-15T01:26:21;19.02;;;14.60;;
58015;SDS011;43809;52.110;20.964;2024-01-15T01:28:21;18.17;;;14.27;;
58015;SDS011;43809;52.110;20.964;2024-01-15T01:30:22;18.10;;;14.95;;
58015;SDS011;43809;52.110;20.964;2024-01-15T01:32:23;20.27;;;15.50;;
58015;SDS011;43809;52.110;20.964;2024-01-15T01:34:23;18.63;;;14.20;;
58015;SDS011;43809;52.110;20.964;2024-01-15T01:36:24;17.67;;;14.85;;
58015;SDS011;43809;52.110;20.964;2024-01-15T01:38:25;18.40;;;14.82;;
58015;SDS011;43809;52.110;20.964;2024-01-15T01:43:46;19.05;;;15.48;;
58015;SDS011;43809;52.110;20.964;2024-01-15T01:45:46;20.55;;;15.32;;
58015;SDS011;43809;52.110;20.964;2024-01-15T01:47:47;17.58;;;14.88;;
58015;SDS011;43809;52.110;20.964;2024-01-15T01:49:48;19.65;;;15.68;;
58015;SDS011;43809;52.110;20.964;2024-01-15T01:51:49;19.80;;;16.10;;
58015;SDS011;43809;52.110;20.964;2024-01-15T01:53:50;18.13;;;14.80;;
58015;SDS011;43809;52.110;20.964;2024-01-15T01:55:50;18.08;;;15.10;;
58015;SDS011;43809;52.110;20.964;2024-01-15T01:57:51;17.98;;;14.48;;
58015;SDS011;43809;52.110;20.964;2024-01-15T01:59:52;17.83;;;14.80;;
58015;SDS011;43809;52.110;20.964;2024-01-15T02:01:56;17.42;;;14.90;;
58015;SDS011;43809;52.110;20.964;2024-01-15T02:03:57;18.10;;;14.82;;
58015;SDS011;43809;52.110;20.964;2024-01-15T02:05:59;18.83;;;15.00;;
58015;SDS011;43809;52.110;20.964;2024-01-15T02:08:00;18.90;;;14.57;;
58015;SDS011;43809;52.110;20.964;2024-01-15T02:10:00;19.33;;;14.82;;
58015;SDS011;43809;52.110;20.964;2024-01-15T02:12:01;17.10;;;13.68;;
58015;SDS011;43809;52.110;20.964;2024-01-15T02:16:53;18.80;;;14.85;;
58015;SDS011;43809;52.110;20.964;2024-01-15T02:18:53;18.55;;;15.02;;
58015;SDS011;43809;52.110;20.964;2024-01-15T02:20:54;17.70;;;13.63;;
58015;SDS011;43809;52.110;20.964;2024-01-15T02:23:08;19.08;;;14.75;;
58015;SDS011;43809;52.110;20.964;2024-01-15T02:25:09;19.10;;;14.32;;
58015;SDS011;43809;52.110;20.964;2024-01-15T02:30:31;17.27;;;13.77;;
58015;SDS011;43809;52.110;20.964;2024-01-15T02:32:31;17.85;;;13.98;;
58015;SDS011;43809;52.110;20.964;2024-01-15T02:42:05;18.13;;;14.02;;
58015;SDS011;43809;52.110;20.964;2024-01-15T02:46:32;18.60;;;13.75;;
58015;SDS011;43809;52.110;20.964;2024-01-15T02:48:32;18.10;;;13.85;;
58015;SDS011;43809;52.110;20.964;2024-01-15T02:50:35;17.58;;;14.02;;
58015;SDS011;43809;52.110;20.964;2024-01-15T02:52:35;17.58;;;13.35;;
58015;SDS011;43809;52.110;20.964;2024-01-15T02:54:36;16.50;;;13.40;;
58015;SDS011;43809;52.110;20.964;2024-01-15T02:56:37;19.70;;;14.68;;
58015;SDS011;43809;52.110;20.964;2024-01-15T02:58:37;18.30;;;14.63;;
58015;SDS011;43809;52.110;20.964;2024-01-15T03:00:38;19.00;;;14.43;;
58015;SDS011;43809;52.110;20.964;2024-01-15T03:02:39;19.85;;;15.57;;
58015;SDS011;43809;52.110;20.964;2024-01-15T03:04:44;20.55;;;15.40;;
58015;SDS011;43809;52.110;20.964;2024-01-15T03:06:45;20.05;;;14.73;;
58015;SDS011;43809;52.110;20.964;2024-01-15T03:08:45;18.95;;;14.95;;
58015;SDS011;43809;52.110;20.964;2024-01-15T03:10:46;20.15;;;15.10;;
58015;SDS011;43809;52.110;20.964;2024-01-15T03:12:46;18.95;;;15.00;;
58015;SDS011;43809;52.110;20.964;2024-01-15T03:14:47;19.85;;;14.40;;
58015;SDS011;43809;52.110;20.964;2024-01-15T03:16:48;19.67;;;15.00;;
58015;SDS011;43809;52.110;20.964;2024-01-15T03:18:48;18.17;;;14.05;;
58015;SDS011;43809;52.110;20.964;2024-01-15T03:20:49;19.38;;;15.23;;
58015;SDS011;43809;52.110;20.964;2024-01-15T03:22:50;19.35;;;15.15;;
58015;SDS011;43809;52.110;20.964;2024-01-15T03:24:52;21.20;;;15.52;;
58015;SDS011;43809;52.110;20.964;2024-01-15T03:33:14;17.80;;;14.13;;
58015;SDS011;43809;52.110;20.964;2024-01-15T03:35:14;18.65;;;14.20;;
58015;SDS011;43809;52.110;20.964;2024-01-15T03:37:15;18.85;;;15.10;;
58015;SDS011;43809;52.110;20.964;2024-01-15T03:39:16;21.52;;;15.07;;
58015;SDS011;43809;52.110;20.964;2024-01-15T03:41:16;19.85;;;14.50;;
58015;SDS011;43809;52.110;20.964;2024-01-15T03:43:17;19.92;;;15.35;;
58015;SDS011;43809;52.110;20.964;2024-01-15T03:45:18;20.98;;;15.57;;
58015;SDS011;43809;52.110;20.964;2024-01-15T03:47:18;18.92;;;14.65;;
58015;SDS011;43809;52.110;20.964;2024-01-15T03:49:19;19.05;;;14.80;;
58015;SDS011;43809;52.110;20.964;2024-01-15T03:51:20;19.73;;;14.93;;
58015;SDS011;43809;52.110;20.964;2024-01-15T03:53:29;20.30;;;15.93;;
58015;SDS011;43809;52.110;20.964;2024-01-15T03:55:30;20.65;;;15.43;;
58015;SDS011;43809;52.110;20.964;2024-01-15T03:57:31;21.40;;;15.68;;
58015;SDS011;43809;52.110;20.964;2024-01-15T03:59:31;21.10;;;15.63;;
58015;SDS011;43809;52.110;20.964;2024-01-15T04:01:48;20.58;;;15.25;;
58015;SDS011;43809;52.110;20.964;2024-01-15T04:03:48;22.27;;;15.73;;
58015;SDS011;43809;52.110;20.964;2024-01-15T04:05:49;20.08;;;15.18;;
58015;SDS011;43809;52.110;20.964;2024-01-15T04:07:50;19.13;;;14.70;;
58015;SDS011;43809;52.110;20.964;2024-01-15T04:09:50;18.83;;;14.38;;
58015;SDS011;43809;52.110;20.964;2024-01-15T04:11:51;18.42;;;13.68;;
58015;SDS011;43809;52.110;20.964;2024-01-15T04:13:52;19.27;;;14.13;;
58015;SDS011;43809;52.110;20.964;2024-01-15T04:15:52;18.38;;;13.85;;
58015;SDS011;43809;52.110;20.964;2024-01-15T04:17:53;18.77;;;13.75;;
58015;SDS011;43809;52.110;20.964;2024-01-15T04:19:54;17.88;;;13.80;;
58015;SDS011;43809;52.110;20.964;2024-01-15T04:25:05;18.48;;;13.52;;
58015;SDS011;43809;52.110;20.964;2024-01-15T04:27:06;17.33;;;13.10;;
58015;SDS011;43809;52.110;20.964;2024-01-15T04:29:07;17.98;;;14.00;;
58015;SDS011;43809;52.110;20.964;2024-01-15T04:31:08;16.92;;;12.90;;
58015;SDS011;43809;52.110;20.964;2024-01-15T04:33:08;18.00;;;14.10;;
58015;SDS011;43809;52.110;20.964;2024-01-15T04:35:09;17.42;;;12.95;;
58015;SDS011;43809;52.110;20.964;2024-01-15T04:37:10;20.27;;;14.73;;
58015;SDS011;43809;52.110;20.964;2024-01-15T04:52:04;17.23;;;12.45;;
58015;SDS011;43809;52.110;20.964;2024-01-15T04:54:05;17.25;;;13.02;;
58015;SDS011;43809;52.110;20.964;2024-01-15T04:56:06;16.13;;;12.93;;
58015;SDS011;43809;52.110;20.964;2024-01-15T04:58:06;16.33;;;13.38;;
58015;SDS011;43809;52.110;20.964;2024-01-15T05:00:09;16.15;;;12.95;;
58015;SDS011;43809;52.110;20.964;2024-01-15T05:02:10;17.60;;;13.63;;
58015;SDS011;43809;52.110;20.964;2024-01-15T05:04:11;18.10;;;13.68;;
58015;SDS011;43809;52.110;20.964;2024-01-15T05:06:11;16.98;;;13.55;;
58015;SDS011;43809;52.110;20.964;2024-01-15T05:08:12;17.77;;;13.52;;
58015;SDS011;43809;52.110;20.964;2024-01-15T05:10:13;15.18;;;12.77;;
58015;SDS011;43809;52.110;20.964;2024-01-15T05:12:13;17.17;;;13.05;;
58015;SDS011;43809;52.110;20.964;2024-01-15T05:14:14;16.02;;;12.63;;
58015;SDS011;43809;52.110;20.964;2024-01-15T05:16:15;16.42;;;13.20;;
58015;SDS011;43809;52.110;20.964;2024-01-15T05:18:16;17.52;;;13.10;;
58015;SDS011;43809;52.110;20.964;2024-01-15T05:20:17;16.38;;;12.63;;
58015;SDS011;43809;52.110;20.964;2024-01-15T05:22:17;16.00;;;12.35;;
58015;SDS011;43809;52.110;20.964;2024-01-15T05:24:18;18.15;;;13.48;;
58015;SDS011;43809;52.110;20.964;2024-01-15T05:26:19;16.92;;;13.07;;
58015;SDS011;43809;52.110;20.964;2024-01-15T05:28:19;14.32;;;11.75;;
58015;SDS011;43809;52.110;20.964;2024-01-15T05:30:20;16.40;;;12.80;;
58015;SDS011;43809;52.110;20.964;2024-01-15T05:32:21;16.77;;;12.35;;
58015;SDS011;43809;52.110;20.964;2024-01-15T05:36:49;14.95;;;11.90;;
58015;SDS011;43809;52.110;20.964;2024-01-15T05:38:50;14.70;;;11.77;;
58015;SDS011;43809;52.110;20.964;2024-01-15T05:40:50;15.75;;;12.30;;
58015;SDS011;43809;52.110;20.964;2024-01-15T05:42:51;15.23;;;11.63;;
58015;SDS011;43809;52.110;20.964;2024-01-15T05:44:52;13.85;;;11.82;;
58015;SDS011;43809;52.110;20.964;2024-01-15T05:46:53;13.45;;;11.52;;
58015;SDS011;43809;52.110;20.964;2024-01-15T05:48:53;13.20;;;10.80;;
58015;SDS011;43809;52.110;20.964;2024-01-15T05:50:54;13.50;;;11.38;;
58015;SDS011;43809;52.110;20.964;2024-01-15T05:52:55;14.25;;;11.27;;
58015;SDS011;43809;52.110;20.964;2024-01-15T05:54:56;15.18;;;10.98;;
58015;SDS011;43809;52.110;20.964;2024-01-15T05:56:57;12.55;;;10.88;;
58015;SDS011;43809;52.110;20.964;2024-01-15T05:58:57;15.77;;;11.57;;
58015;SDS011;43809;52.110;20.964;2024-01-15T06:00:58;16.52;;;11.90;;
58015;SDS011;43809;52.110;20.964;2024-01-15T06:02:59;13.48;;;11.45;;
58015;SDS011;43809;52.110;20.964;2024-01-15T06:05:00;14.15;;;11.73;;
58015;SDS011;43809;52.110;20.964;2024-01-15T06:09:36;13.77;;;10.75;;
58015;SDS011;43809;52.110;20.964;2024-01-15T06:11:38;15.90;;;12.57;;
58015;SDS011;43809;52.110;20.964;2024-01-15T06:13:39;15.60;;;12.18;;
58015;SDS011;43809;52.110;20.964;2024-01-15T06:15:40;17.77;;;13.15;;
58015;SDS011;43809;52.110;20.964;2024-01-15T06:17:40;14.68;;;11.70;;
58015;SDS011;43809;52.110;20.964;2024-01-15T06:19:41;14.35;;;11.25;;
58015;SDS011;43809;52.110;20.964;2024-01-15T06:21:42;13.98;;;11.18;;
58015;SDS011;43809;52.110;20.964;2024-01-15T06:23:42;15.23;;;12.20;;
58015;SDS011;43809;52.110;20.964;2024-01-15T06:25:43;14.48;;;11.63;;
58015;SDS011;43809;52.110;20.964;2024-01-15T06:27:44;14.43;;;11.80;;
58015;SDS011;43809;52.110;20.964;2024-01-15T06:29:45;14.38;;;10.98;;
58015;SDS011;43809;52.110;20.964;2024-01-15T06:31:47;13.63;;;11.10;;
58015;SDS011;43809;52.110;20.964;2024-01-15T06:33:48;15.00;;;11.60;;
58015;SDS011;43809;52.110;20.964;2024-01-15T06:35:49;14.02;;;11.52;;
58015;SDS011;43809;52.110;20.964;2024-01-15T06:37:50;13.60;;;11.23;;
58015;SDS011;43809;52.110;20.964;2024-01-15T06:39:51;13.23;;;10.68;;
58015;SDS011;43809;52.110;20.964;2024-01-15T06:41:52;13.27;;;10.52;;
58015;SDS011;43809;52.110;20.964;2024-01-15T06:43:53;14.20;;;11.32;;
58015;SDS011;43809;52.110;20.964;2024-01-15T06:45:53;14.93;;;11.75;;
58015;SDS011;43809;52.110;20.964;2024-01-15T06:47:54;13.93;;;11.30;;
58015;SDS011;43809;52.110;20.964;2024-01-15T06:49:55;13.25;;;10.48;;
58015;SDS011;43809;52.110;20.964;2024-01-15T06:51:55;14.02;;;11.25;;
58015;SDS011;43809;52.110;20.964;2024-01-15T06:56:26;13.32;;;11.05;;
58015;SDS011;43809;52.110;20.964;2024-01-15T06:58:27;12.95;;;10.98;;
58015;SDS011;43809;52.110;20.964;2024-01-15T07:00:28;13.35;;;10.77;;
58015;SDS011;43809;52.110;20.964;2024-01-15T07:02:29;13.20;;;10.63;;
58015;SDS011;43809;52.110;20.964;2024-01-15T07:04:30;13.90;;;11.02;;
58015;SDS011;43809;52.110;20.964;2024-01-15T07:08:54;13.35;;;10.65;;
58015;SDS011;43809;52.110;20.964;2024-01-15T07:10:54;14.32;;;11.10;;
58015;SDS011;43809;52.110;20.964;2024-01-15T07:12:55;14.27;;;11.50;;
58015;SDS011;43809;52.110;20.964;2024-01-15T07:14:56;14.00;;;11.45;;
58015;SDS011;43809;52.110;20.964;2024-01-15T07:22:27;12.80;;;10.15;;
58015;SDS011;43809;52.110;20.964;2024-01-15T07:24:28;13.40;;;10.25;;
58015;SDS011;43809;52.110;20.964;2024-01-15T07:26:29;12.20;;;10.10;;
58015;SDS011;43809;52.110;20.964;2024-01-15T07:28:30;13.77;;;10.88;;
58015;SDS011;43809;52.110;20.964;2024-01-15T07:30:31;13.40;;;11.02;;
58015;SDS011;43809;52.110;20.964;2024-01-15T07:32:32;13.30;;;10.45;;
58015;SDS011;43809;52.110;20.964;2024-01-15T07:34:33;13.10;;;11.15;;
58015;SDS011;43809;52.110;20.964;2024-01-15T07:45:39;14.38;;;11.45;;
58015;SDS011;43809;52.110;20.964;2024-01-15T07:47:40;15.32;;;11.80;;
58015;SDS011;43809;52.110;20.964;2024-01-15T07:49:41;14.77;;;11.43;;
58015;SDS011;43809;52.110;20.964;2024-01-15T07:51:41;13.98;;;11.40;;
58015;SDS011;43809;52.110;20.964;2024-01-15T07:53:44;14.43;;;11.50;;
58015;SDS011;43809;52.110;20.964;2024-01-15T07:55:46;14.43;;;12.05;;
58015;SDS011;43809;52.110;20.964;2024-01-15T07:57:46;16.08;;;12.48;;
58015;SDS011;43809;52.110;20.964;2024-01-15T07:59:49;15.63;;;11.75;;
58015;SDS011;43809;52.110;20.964;2024-01-15T08:01:50;12.82;;;11.18;;
58015;SDS011;43809;52.110;20.964;2024-01-15T08:03:51;13.05;;;10.48;;
58015;SDS011;43809;52.110;20.964;2024-01-15T08:05:52;13.60;;;11.53;;
58015;SDS011;43809;52.110;20.964;2024-01-15T08:07:54;14.60;;;11.13;;
58015;SDS011;43809;52.110;20.964;2024-01-15T08:09:55;13.52;;;11.05;;
58015;SDS011;43809;52.110;20.964;2024-01-15T08:11:56;13.73;;;10.60;;
58015;SDS011;43809;52.110;20.964;2024-01-15T08:13:56;14.13;;;11.43;;
58015;SDS011;43809;52.110;20.964;2024-01-15T08:15:57;13.68;;;11.13;;
58015;SDS011;43809;52.110;20.964;2024-01-15T08:17:57;15.23;;;11.98;;
58015;SDS011;43809;52.110;20.964;2024-01-15T08:19:58;14.65;;;11.48;;
58015;SDS011;43809;52.110;20.964;2024-01-15T08:22:00;13.75;;;11.52;;
58015;SDS011;43809;52.110;20.964;2024-01-15T08:24:02;14.98;;;11.68;;
58015;SDS011;43809;52.110;20.964;2024-01-15T08:26:03;14.35;;;11.10;;
58015;SDS011;43809;52.110;20.964;2024-01-15T08:28:03;15.15;;;12.20;;
58015;SDS011;43809;52.110;20.964;2024-01-15T08:30:04;14.20;;;11.20;;
58015;SDS011;43809;52.110;20.964;2024-01-15T08:32:05;14.07;;;11.48;;
58015;SDS011;43809;52.110;20.964;2024-01-15T08:36:43;14.02;;;11.70;;
58015;SDS011;43809;52.110;20.964;2024-01-15T08:38:44;15.60;;;11.82;;
58015;SDS011;43809;52.110;20.964;2024-01-15T08:40:45;16.05;;;12.63;;
58015;SDS011;43809;52.110;20.964;2024-01-15T08:42:45;15.23;;;11.57;;
58015;SDS011;43809;52.110;20.964;2024-01-15T08:44:46;17.38;;;12.88;;
58015;SDS011;43809;52.110;20.964;2024-01-15T08:46:47;14.75;;;12.00;;
58015;SDS011;43809;52.110;20.964;2024-01-15T08:48:48;15.20;;;12.55;;
58015;SDS011;43809;52.110;20.964;2024-01-15T08:50:48;17.45;;;12.95;;
58015;SDS011;43809;52.110;20.964;2024-01-15T08:52:49;15.98;;;12.30;;
58015;SDS011;43809;52.110;20.964;2024-01-15T08:54:50;16.02;;;13.27;;
58015;SDS011;43809;52.110;20.964;2024-01-15T08:56:51;15.40;;;12.30;;
58015;SDS011;43809;52.110;20.964;2024-01-15T08:58:51;17.15;;;13.15;;
58015;SDS011;43809;52.110;20.964;2024-01-15T09:00:52;16.38;;;12.55;;
58015;SDS011;43809;52.110;20.964;2024-01-15T09:02:52;15.25;;;12.48;;
58015;SDS011;43809;52.110;20.964;2024-01-15T09:04:53;13.18;;;11.38;;
58015;SDS011;43809;52.110;20.964;2024-01-15T09:06:54;13.52;;;11.25;;
58015;SDS011;43809;52.110;20.964;2024-01-15T09:08:54;13.90;;;11.23;;
58015;SDS011;43809;52.110;20.964;2024-01-15T09:10:55;14.05;;;10.60;;
58015;SDS011;43809;52.110;20.964;2024-01-15T09:13:11;12.25;;;10.38;;
58015;SDS011;43809;52.110;20.964;2024-01-15T09:15:12;14.00;;;10.00;;
58015;SDS011;43809;52.110;20.964;2024-01-15T09:17:13;11.40;;;9.80;;
58015;SDS011;43809;52.110;20.964;2024-01-15T09:19:13;11.63;;;9.13;;
58015;SDS011;43809;52.110;20.964;2024-01-15T09:21:14;14.23;;;9.07;;
58015;SDS011;43809;52.110;20.964;2024-01-15T09:23:15;10.57;;;8.95;;
58015;SDS011;43809;52.110;20.964;2024-01-15T09:25:15;13.05;;;9.30;;
58015;SDS011;43809;52.110;20.964;2024-01-15T09:27:16;10.25;;;8.38;;
58015;SDS011;43809;52.110;20.964;2024-01-15T09:31:42;10.02;;;8.32;;
58015;SDS011;43809;52.110;20.964;2024-01-15T09:33:43;12.10;;;8.82;;
58015;SDS011;43809;52.110;20.964;2024-01-15T09:35:44;11.35;;;8.77;;
58015;SDS011;43809;52.110;20.964;2024-01-15T09:37:45;11.57;;;8.32;;
58015;SDS011;43809;52.110;20.964;2024-01-15T09:39:45;10.13;;;7.28;;
58015;SDS011;43809;52.110;20.964;2024-01-15T09:47:22;10.45;;;6.80;;
58015;SDS011;43809;52.110;20.964;2024-01-15T09:49:23;10.45;;;7.53;;
58015;SDS011;43809;52.110;20.964;2024-01-15T09:51:28;8.15;;;6.15;;
58015;SDS011;43809;52.110;20.964;2024-01-15T09:53:31;11.05;;;6.22;;
58015;SDS011;43809;52.110;20.964;2024-01-15T09:55:32;10.48;;;6.35;;
58015;SDS011;43809;52.110;20.964;2024-01-15T09:57:33;10.98;;;6.35;;
58015;SDS011;43809;52.110;20.964;2024-01-15T09:59:42;10.50;;;6.22;;
58015;SDS011;43809;52.110;20.964;2024-01-15T10:01:43;10.02;;;6.05;;
58015;SDS011;43809;52.110;20.964;2024-01-15T10:03:44;11.40;;;6.53;;
58015;SDS011;43809;52.110;20.964;2024-01-15T10:05:45;9.25;;;6.30;;
58015;SDS011;43809;52.110;20.964;2024-01-15T10:07:46;9.63;;;6.10;;
58015;SDS011;43809;52.110;20.964;2024-01-15T10:09:48;9.65;;;6.40;;
58015;SDS011;43809;52.110;20.964;2024-01-15T10:11:54;8.43;;;5.80;;
58015;SDS011;43809;52.110;20.964;2024-01-15T10:13:55;7.60;;;5.70;;
58015;SDS011;43809;52.110;20.964;2024-01-15T10:17:58;8.10;;;5.82;;
58015;SDS011;43809;52.110;20.964;2024-01-15T10:26:24;9.75;;;6.57;;
58015;SDS011;43809;52.110;20.964;2024-01-15T10:28:26;9.35;;;6.22;;
58015;SDS011;43809;52.110;20.964;2024-01-15T10:30:26;10.30;;;6.57;;
58015;SDS011;43809;52.110;20.964;2024-01-15T10:32:27;9.77;;;6.70;;
58015;SDS011;43809;52.110;20.964;2024-01-15T10:34:28;9.85;;;7.35;;
58015;SDS011;43809;52.110;20.964;2024-01-15T10:36:29;9.32;;;6.35;;
58015;SDS011;43809;52.110;20.964;2024-01-15T10:38:29;9.60;;;6.90;;
58015;SDS011;43809;52.110;20.964;2024-01-15T10:40:30;10.40;;;6.72;;
58015;SDS011;43809;52.110;20.964;2024-01-15T10:42:31;10.82;;;6.90;;
58015;SDS011;43809;52.110;20.964;2024-01-15T10:44:32;9.80;;;6.97;;
58015;SDS011;43809;52.110;20.964;2024-01-15T10:46:32;10.20;;;7.13;;
58015;SDS011;43809;52.110;20.964;2024-01-15T10:48:34;9.98;;;6.32;;
58015;SDS011;43809;52.110;20.964;2024-01-15T10:50:36;9.43;;;6.95;;
58015;SDS011;43809;52.110;20.964;2024-01-15T10:52:37;8.95;;;6.75;;
58015;SDS011;43809;52.110;20.964;2024-01-15T10:54:38;9.85;;;6.78;;
58015;SDS011;43809;52.110;20.964;2024-01-15T10:56:39;10.85;;;7.13;;
58015;SDS011;43809;52.110;20.964;2024-01-15T10:58:39;11.05;;;7.60;;
58015;SDS011;43809;52.110;20.964;2024-01-15T11:00:40;10.25;;;7.57;;
58015;SDS011;43809;52.110;20.964;2024-01-15T11:02:41;14.07;;;8.63;;
58015;SDS011;43809;52.110;20.964;2024-01-15T11:04:42;10.18;;;7.35;;
58015;SDS011;43809;52.110;20.964;2024-01-15T11:06:47;12.93;;;7.90;;
58015;SDS011;43809;52.110;20.964;2024-01-15T11:08:49;11.20;;;8.65;;
58015;SDS011;43809;52.110;20.964;2024-01-15T11:10:51;10.60;;;7.85;;
58015;SDS011;43809;52.110;20.964;2024-01-15T11:12:52;10.70;;;8.67;;
58015;SDS011;43809;52.110;20.964;2024-01-15T11:15:00;9.80;;;7.70;;
58015;SDS011;43809;52.110;20.964;2024-01-15T11:17:01;10.05;;;7.82;;
58015;SDS011;43809;52.110;20.964;2024-01-15T11:19:02;10.55;;;7.45;;
58015;SDS011;43809;52.110;20.964;2024-01-15T11:23:23;10.57;;;7.55;;
58015;SDS011;43809;52.110;20.964;2024-01-15T11:25:34;13.35;;;8.50;;
58015;SDS011;43809;52.110;20.964;2024-01-15T11:27:51;12.02;;;8.10;;
58015;SDS011;43809;52.110;20.964;2024-01-15T11:30:02;11.25;;;8.00;;
58015;SDS011;43809;52.110;20.964;2024-01-15T11:32:04;11.73;;;7.90;;
58015;SDS011;43809;52.110;20.964;2024-01-15T11:34:08;11.10;;;7.60;;
58015;SDS011;43809;52.110;20.964;2024-01-15T11:36:09;12.32;;;8.57;;
58015;SDS011;43809;52.110;20.964;2024-01-15T11:38:09;11.65;;;8.15;;
58015;SDS011;43809;52.110;20.964;2024-01-15T11:40:10;12.13;;;7.90;;
58015;SDS011;43809;52.110;20.964;2024-01-15T11:42:12;12.00;;;7.85;;
58015;SDS011;43809;52.110;20.964;2024-01-15T11:52:15;13.23;;;8.68;;
58015;SDS011;43809;52.110;20.964;2024-01-15T11:54:17;12.70;;;8.93;;
58015;SDS011;43809;52.110;20.964;2024-01-15T11:56:18;13.00;;;9.07;;
58015;SDS011;43809;52.110;20.964;2024-01-15T11:58:22;13.25;;;8.73;;
58015;SDS011;43809;52.110;20.964;2024-01-15T12:00:23;12.27;;;8.82;;
58015;SDS011;43809;52.110;20.964;2024-01-15T12:02:24;13.77;;;8.82;;
58015;SDS011;43809;52.110;20.964;2024-01-15T12:06:44;14.70;;;8.63;;
58015;SDS011;43809;52.110;20.964;2024-01-15T12:08:45;12.40;;;8.52;;
58015;SDS011;43809;52.110;20.964;2024-01-15T12:10:46;13.43;;;8.75;;
58015;SDS011;43809;52.110;20.964;2024-01-15T12:15:06;14.52;;;10.57;;
58015;SDS011;43809;52.110;20.964;2024-01-15T12:17:06;13.52;;;9.38;;
58015;SDS011;43809;52.110;20.964;2024-01-15T12:19:08;12.40;;;9.23;;
58015;SDS011;43809;52.110;20.964;2024-01-15T12:21:09;13.80;;;9.55;;
58015;SDS011;43809;52.110;20.964;2024-01-15T12:23:10;15.30;;;10.10;;
58015;SDS011;43809;52.110;20.964;2024-01-15T12:25:11;13.35;;;8.50;;
58015;SDS011;43809;52.110;20.964;2024-01-15T12:27:12;11.50;;;8.60;;
58015;SDS011;43809;52.110;20.964;2024-01-15T12:31:39;13.57;;;9.38;;
58015;SDS011;43809;52.110;20.964;2024-01-15T12:33:40;12.73;;;9.20;;
58015;SDS011;43809;52.110;20.964;2024-01-15T12:35:40;12.77;;;9.07;;
58015;SDS011;43809;52.110;20.964;2024-01-15T12:38:03;13.18;;;9.73;;
58015;SDS011;43809;52.110;20.964;2024-01-15T12:40:18;16.40;;;9.73;;
58015;SDS011;43809;52.110;20.964;2024-01-15T12:42:19;14.75;;;10.07;;
58015;SDS011;43809;52.110;20.964;2024-01-15T12:44:21;13.93;;;8.98;;
58015;SDS011;43809;52.110;20.964;2024-01-15T12:48:35;13.05;;;8.48;;
58015;SDS011;43809;52.110;20.964;2024-01-15T12:50:37;11.65;;;8.73;;
58015;SDS011;43809;52.110;20.964;2024-01-15T12:52:39;11.50;;;8.40;;
58015;SDS011;43809;52.110;20.964;2024-01-15T12:54:40;11.63;;;8.35;;
58015;SDS011;43809;52.110;20.964;2024-01-15T12:56:40;14.45;;;9.57;;
58015;SDS011;43809;52.110;20.964;2024-01-15T12:58:41;13.30;;;8.55;;
58015;SDS011;43809;52.110;20.964;2024-01-15T13:00:42;12.95;;;8.30;;
58015;SDS011;43809;52.110;20.964;2024-01-15T13:02:42;12.93;;;8.50;;
58015;SDS011;43809;52.110;20.964;2024-01-15T13:04:43;15.68;;;10.23;;
58015;SDS011;43809;52.110;20.964;2024-01-15T13:06:44;13.02;;;9.18;;
58015;SDS011;43809;52.110;20.964;2024-01-15T13:08:44;14.88;;;10.23;;
58015;SDS011;43809;52.110;20.964;2024-01-15T13:10:45;16.45;;;10.32;;
58015;SDS011;43809;52.110;20.964;2024-01-15T13:12:46;15.32;;;10.02;;
58015;SDS011;43809;52.110;20.964;2024-01-15T13:14:46;15.20;;;10.00;;
58015;SDS011;43809;52.110;20.964;2024-01-15T13:16:58;14.57;;;9.90;;
58015;SDS011;43809;52.110;20.964;2024-01-15T13:18:59;15.18;;;10.25;;
58015;SDS011;43809;52.110;20.964;2024-01-15T13:21:00;14.70;;;10.73;;
58015;SDS011;43809;52.110;20.964;2024-01-15T13:25:04;14.68;;;9.75;;
58015;SDS011;43809;52.110;20.964;2024-01-15T13:27:07;15.25;;;10.25;;
58015;SDS011;43809;52.110;20.964;2024-01-15T13:29:08;17.48;;;10.20;;
58015;SDS011;43809;52.110;20.964;2024-01-15T13:31:09;15.65;;;10.70;;
58015;SDS011;43809;52.110;20.964;2024-01-15T13:33:09;16.25;;;10.45;;
58015;SDS011;43809;52.110;20.964;2024-01-15T13:35:10;16.27;;;10.90;;
58015;SDS011;43809;52.110;20.964;2024-01-15T13:37:13;16.00;;;10.45;;
58015;SDS011;43809;52.110;20.964;2024-01-15T13:39:14;16.35;;;10.63;;
58015;SDS011;43809;52.110;20.964;2024-01-15T13:41:14;15.43;;;9.55;;
58015;SDS011;43809;52.110;20.964;2024-01-15T13:43:15;17.67;;;10.35;;
58015;SDS011;43809;52.110;20.964;2024-01-15T13:45:16;16.92;;;10.95;;
58015;SDS011;43809;52.110;20.964;2024-01-15T13:47:17;19.00;;;10.95;;
58015;SDS011;43809;52.110;20.964;2024-01-15T13:49:32;17.08;;;10.60;;
58015;SDS011;43809;52.110;20.964;2024-01-15T13:51:34;15.27;;;10.27;;
58015;SDS011;43809;52.110;20.964;2024-01-15T13:53:35;16.52;;;10.70;;
58015;SDS011;43809;52.110;20.964;2024-01-15T13:55:36;14.57;;;9.70;;
58015;SDS011;43809;52.110;20.964;2024-01-15T13:57:37;19.35;;;10.57;;